createdAt,value
2022-11-20T00:01:13.957Z,35.87
2022-11-20T00:03:41.386Z,37.97
2022-11-20T00:06:10.875Z,39.50
2022-11-20T00:08:37.799Z,35.03
2022-11-20T00:11:15.319Z,38.37
2022-11-20T00:13:43.836Z,35.00
2022-11-20T00:16:15.531Z,36.43
2022-11-20T00:18:43.503Z,42.77
2022-11-20T00:21:18.174Z,36.40
2022-11-20T00:23:45.872Z,36.70
2022-11-20T00:26:15.382Z,39.77
2022-11-20T00:28:43.779Z,39.17
2022-11-20T00:31:15.982Z,37.17
2022-11-20T00:33:43.957Z,35.50
2022-11-20T00:36:16.781Z,41.10
2022-11-20T00:38:44.532Z,37.47
2022-11-20T00:41:14.119Z,40.23
2022-11-20T00:43:41.357Z,40.40
2022-11-20T00:46:11.622Z,37.23
2022-11-20T00:48:38.461Z,40.27
2022-11-20T00:51:05.640Z,37.40
2022-11-20T00:53:32.821Z,37.47
2022-11-20T00:56:05.553Z,40.97
2022-11-20T00:58:35.737Z,40.27
2022-11-20T01:01:05.576Z,37.07
2022-11-20T01:03:33.838Z,43.93
2022-11-20T01:06:05.479Z,37.47
2022-11-20T01:08:34.124Z,38.47
2022-11-20T01:11:06.463Z,36.50
2022-11-20T01:13:40.125Z,40.07
2022-11-20T01:16:11.775Z,37.47
2022-11-20T01:18:40.707Z,40.67
2022-11-20T01:21:09.890Z,39.93
2022-11-20T01:23:39.067Z,41.53
2022-11-20T01:26:11.766Z,38.97
2022-11-20T01:28:39.389Z,40.60
2022-11-20T01:31:17.677Z,40.40
2022-11-20T01:33:46.125Z,40.23
2022-11-20T01:36:13.334Z,40.33
2022-11-20T01:38:40.864Z,36.13
2022-11-20T01:41:08.686Z,41.73
2022-11-20T01:43:35.993Z,38.03
2022-11-20T01:46:18.952Z,42.13
2022-11-20T01:48:51.873Z,37.53
2022-11-20T01:51:24.410Z,40.13
2022-11-20T01:53:54.974Z,35.70
2022-11-20T01:56:22.553Z,35.50
2022-11-20T01:58:54.139Z,40.17
2022-11-20T02:01:22.464Z,40.50
2022-11-20T02:03:50.569Z,43.07
2022-11-20T02:06:31.331Z,40.53
2022-11-20T02:08:58.206Z,38.93
2022-11-20T02:11:25.236Z,37.77
2022-11-20T02:13:52.546Z,39.77
2022-11-20T02:16:22.114Z,42.90
2022-11-20T02:18:49.791Z,36.90
2022-11-20T02:21:26.642Z,41.57
2022-11-20T02:23:59.520Z,39.30
2022-11-20T02:26:28.736Z,40.07
2022-11-20T02:28:56.226Z,46.33
2022-11-20T02:31:23.075Z,39.77
2022-11-20T02:33:56.310Z,40.07
2022-11-20T02:36:23.728Z,41.50
2022-11-20T02:38:51.021Z,36.03
2022-11-20T02:41:17.842Z,37.60
2022-11-20T02:43:44.715Z,38.80
2022-11-20T02:46:11.836Z,39.00
2022-11-20T02:48:38.706Z,38.37
2022-11-20T02:51:05.658Z,40.40
2022-11-20T02:53:32.454Z,40.00
2022-11-20T02:55:59.294Z,38.80
2022-11-20T02:58:26.138Z,37.83
2022-11-20T03:00:53.694Z,43.40
2022-11-20T03:03:20.545Z,39.27
2022-11-20T03:05:47.366Z,41.97
2022-11-20T03:08:14.297Z,38.27
2022-11-20T03:10:41.117Z,39.77
2022-11-20T03:13:08.016Z,39.03
2022-11-20T03:15:36.437Z,39.63
2022-11-20T03:18:03.983Z,36.60
2022-11-20T03:20:31.126Z,39.70
2022-11-20T03:22:57.947Z,42.53
2022-11-20T03:25:24.958Z,38.03
2022-11-20T03:27:52.003Z,38.63
2022-11-20T03:30:19.132Z,41.37
2022-11-20T03:32:46.462Z,43.03
2022-11-20T03:35:13.466Z,37.87
2022-11-20T03:37:40.301Z,41.10
2022-11-20T03:40:07.715Z,39.90
2022-11-20T03:42:46.828Z,43.60
2022-11-20T03:45:19.961Z,40.43
2022-11-20T03:47:47.325Z,41.00
2022-11-20T03:50:15.055Z,44.13
2022-11-20T03:52:42.258Z,44.97
2022-11-20T03:55:09.555Z,43.70
2022-11-20T03:57:36.470Z,40.27
2022-11-20T04:00:04.350Z,45.70
2022-11-20T04:02:31.180Z,39.17
2022-11-20T04:04:58.057Z,45.10
2022-11-20T04:07:24.966Z,45.77
2022-11-20T04:09:51.923Z,41.70
2022-11-20T04:12:18.830Z,43.07
2022-11-20T04:14:45.659Z,44.00
2022-11-20T04:17:12.539Z,43.87
2022-11-20T04:19:39.386Z,42.77
2022-11-20T04:22:06.269Z,42.63
2022-11-20T04:24:33.132Z,41.63
2022-11-20T04:27:00.013Z,41.60
2022-11-20T04:29:26.975Z,40.00
2022-11-20T04:31:53.790Z,40.83
2022-11-20T04:34:20.583Z,42.47
2022-11-20T04:36:47.468Z,41.60
2022-11-20T04:39:16.305Z,40.70
2022-11-20T04:41:43.410Z,42.17
2022-11-20T04:44:10.262Z,39.73
2022-11-20T04:46:42.289Z,43.90
2022-11-20T04:49:14.162Z,43.40
2022-11-20T04:51:41.094Z,38.77
2022-11-20T04:54:07.971Z,40.07
2022-11-20T04:56:34.840Z,41.90
2022-11-20T04:59:02.832Z,39.03
2022-11-20T05:01:30.023Z,39.67
2022-11-20T05:03:56.938Z,44.73
2022-11-20T05:06:24.152Z,42.70
2022-11-20T05:08:51.172Z,42.53
2022-11-20T05:11:20.808Z,43.00
2022-11-20T05:13:48.583Z,45.53
2022-11-20T05:16:21.302Z,42.80
2022-11-20T05:18:48.468Z,43.73
2022-11-20T05:21:15.655Z,42.90
2022-11-20T05:23:43.487Z,45.80
2022-11-20T05:26:22.435Z,41.80
2022-11-20T05:28:50.598Z,43.50
2022-11-20T05:31:26.197Z,41.83
2022-11-20T05:33:54.833Z,45.20
2022-11-20T05:36:21.734Z,42.90
2022-11-20T05:38:50.935Z,45.17
2022-11-20T05:41:20.791Z,45.23
2022-11-20T05:43:49.269Z,46.83
2022-11-20T05:46:22.323Z,46.83
2022-11-20T05:48:52.048Z,45.23
2022-11-20T05:51:20.397Z,42.30
2022-11-20T05:53:48.827Z,45.47
2022-11-20T05:56:18.779Z,46.07
2022-11-20T05:58:46.553Z,47.07
2022-11-20T06:01:15.271Z,45.30
2022-11-20T06:03:46.882Z,43.13
2022-11-20T06:06:15.146Z,43.80
2022-11-20T06:08:42.439Z,48.03
2022-11-20T06:11:11.885Z,45.90
2022-11-20T06:13:42.087Z,46.37
2022-11-20T06:16:10.696Z,45.20
2022-11-20T06:18:38.192Z,45.80
2022-11-20T06:21:10.960Z,56.67
2022-11-20T06:23:38.326Z,45.90
2022-11-20T06:26:11.254Z,46.63
2022-11-20T06:28:38.606Z,49.10
2022-11-20T06:31:06.465Z,49.60
2022-11-20T06:33:33.444Z,46.93
2022-11-20T06:36:05.840Z,48.17
2022-11-20T06:38:35.939Z,48.67
2022-11-20T06:41:03.983Z,47.83
2022-11-20T06:43:31.071Z,45.00
2022-11-20T06:45:59.567Z,49.07
2022-11-20T06:48:30.561Z,42.90
2022-11-20T06:51:00.029Z,48.90
2022-11-20T06:53:27.088Z,49.57
2022-11-20T06:55:57.392Z,50.93
2022-11-20T06:58:24.235Z,46.60
2022-11-20T07:00:51.192Z,47.23
2022-11-20T07:03:18.030Z,52.63
2022-11-20T07:05:46.175Z,46.63
2022-11-20T07:08:13.553Z,48.17
2022-11-20T07:10:40.414Z,49.97
2022-11-20T07:13:08.119Z,53.17
2022-11-20T07:15:34.986Z,51.60
2022-11-20T07:18:02.700Z,48.40
2022-11-20T07:20:29.731Z,53.13
2022-11-20T07:22:57.250Z,53.10
2022-11-20T07:25:28.001Z,56.20
2022-11-20T07:28:01.316Z,50.10
2022-11-20T07:30:29.526Z,50.60
2022-11-20T07:32:57.538Z,53.60
2022-11-20T07:35:25.669Z,51.90
2022-11-20T07:37:52.531Z,53.20
2022-11-20T07:40:19.432Z,51.37
2022-11-20T07:42:51.095Z,56.73
2022-11-20T07:45:22.562Z,58.17
2022-11-20T07:47:49.754Z,47.90
2022-11-20T07:50:17.247Z,53.67
2022-11-20T07:52:44.140Z,55.57
2022-11-20T07:55:12.072Z,50.43
2022-11-20T07:57:39.256Z,52.00
2022-11-20T08:00:08.312Z,51.60
2022-11-20T08:02:35.122Z,50.03
2022-11-20T08:05:01.927Z,50.10
2022-11-20T08:07:28.812Z,53.33
2022-11-20T08:09:55.625Z,57.47
2022-11-20T08:12:41.038Z,58.10
2022-11-20T08:15:13.163Z,51.90
2022-11-20T08:17:40.455Z,61.97
2022-11-20T08:20:07.741Z,56.53
2022-11-20T08:22:34.528Z,54.40
2022-11-20T08:25:01.398Z,55.00
2022-11-20T08:27:28.519Z,60.50
2022-11-20T08:29:55.590Z,54.03
2022-11-20T08:32:22.662Z,56.77
2022-11-20T08:34:49.590Z,59.37
2022-11-20T08:37:16.434Z,50.73
2022-11-20T08:39:43.241Z,52.13
2022-11-20T08:42:10.245Z,59.10
2022-11-20T08:44:37.061Z,72.50
2022-11-20T08:47:03.900Z,51.90
2022-11-20T08:49:30.719Z,55.63
2022-11-20T08:51:58.421Z,55.40
2022-11-20T08:54:25.227Z,53.27
2022-11-20T08:56:52.210Z,51.93
2022-11-20T08:59:36.876Z,49.00
2022-11-20T09:02:05.914Z,46.57
2022-11-20T09:04:32.766Z,48.03
2022-11-20T09:07:01.423Z,39.53
2022-11-20T09:09:28.345Z,41.40
2022-11-20T09:11:55.172Z,36.73
2022-11-20T09:14:22.469Z,36.33
2022-11-20T09:16:49.336Z,41.70
2022-11-20T09:22:03.377Z,40.90
2022-11-20T09:24:30.472Z,46.90
2022-11-20T09:26:57.520Z,42.87
2022-11-20T09:29:24.486Z,38.13
2022-11-20T09:31:51.373Z,39.67
2022-11-20T09:34:18.314Z,47.60
2022-11-20T09:36:46.054Z,40.60
2022-11-20T09:39:12.842Z,38.30
2022-11-20T09:41:51.668Z,38.43
2022-11-20T09:45:00.297Z,37.93
2022-11-20T09:47:55.808Z,39.73
2022-11-20T09:50:44.251Z,38.60
2022-11-20T09:53:29.432Z,45.10
2022-11-20T09:55:57.691Z,42.40
2022-11-20T09:58:43.784Z,40.00
2022-11-20T10:01:12.923Z,41.50
2022-11-20T10:04:05.583Z,41.07
2022-11-20T10:06:59.653Z,40.93
2022-11-20T10:09:40.501Z,42.93
2022-11-20T10:13:05.822Z,41.83
2022-11-20T10:16:10.196Z,44.10
2022-11-20T10:18:55.690Z,66.00
2022-11-20T10:21:25.423Z,37.07
2022-11-20T10:23:52.282Z,38.03
2022-11-20T10:26:46.541Z,41.40
2022-11-20T10:29:35.369Z,42.73
2022-11-20T10:32:08.903Z,40.80
2022-11-20T10:34:54.950Z,38.40
2022-11-20T10:37:26.928Z,36.03
2022-11-20T10:40:29.904Z,35.40
2022-11-20T10:43:09.464Z,32.90
2022-11-20T10:45:56.283Z,36.43
2022-11-20T10:48:26.306Z,33.57
2022-11-20T10:51:30.316Z,41.57
2022-11-20T10:54:18.492Z,30.90
2022-11-20T10:56:52.683Z,31.00
2022-11-20T10:59:52.674Z,28.60
2022-11-20T11:02:21.237Z,25.83
2022-11-20T11:04:53.211Z,27.40
2022-11-20T11:07:32.545Z,24.47
2022-11-20T11:09:59.391Z,30.00
2022-11-20T11:12:28.809Z,27.20
2022-11-20T11:14:59.064Z,21.23
2022-11-20T11:17:34.094Z,25.83
2022-11-20T11:20:05.789Z,29.37
2022-11-20T11:22:45.938Z,26.50
2022-11-20T11:25:34.781Z,27.73
2022-11-20T11:28:05.138Z,20.63
2022-11-20T11:30:43.295Z,22.50
2022-11-20T11:33:21.424Z,24.43
2022-11-20T11:35:51.795Z,22.70
2022-11-20T11:38:39.857Z,25.40
2022-11-20T11:41:10.442Z,26.53
2022-11-20T11:43:57.517Z,21.90
2022-11-20T11:46:24.642Z,18.70
2022-11-20T11:49:00.224Z,21.07
2022-11-20T11:51:48.839Z,22.53
2022-11-20T11:54:23.655Z,18.73
2022-11-20T11:56:52.045Z,19.30
2022-11-20T11:59:51.412Z,17.67
2022-11-20T12:02:24.511Z,17.23
2022-11-20T12:05:01.111Z,18.07
2022-11-20T12:07:47.151Z,18.30
2022-11-20T12:10:23.652Z,20.67
2022-11-20T12:13:01.873Z,12.67
2022-11-20T12:15:35.143Z,17.10
2022-11-20T12:18:02.787Z,16.53
2022-11-20T12:20:38.871Z,15.27
2022-11-20T12:23:19.070Z,15.13
2022-11-20T12:25:49.337Z,16.27
2022-11-20T12:28:20.849Z,15.00
2022-11-20T12:31:21.615Z,18.03
2022-11-20T12:34:03.078Z,15.27
2022-11-20T12:36:46.710Z,16.00
2022-11-20T12:39:26.061Z,15.97
2022-11-20T12:42:43.440Z,14.50
2022-11-20T12:45:22.167Z,16.13
2022-11-20T12:47:49.035Z,19.63
2022-11-20T12:50:53.364Z,18.80
2022-11-20T12:53:32.843Z,15.53
2022-11-20T12:56:11.400Z,15.57
2022-11-20T12:58:44.189Z,17.17
2022-11-20T13:01:40.853Z,12.80
2022-11-20T13:04:35.250Z,13.50
2022-11-20T13:07:09.007Z,13.60
2022-11-20T13:09:43.562Z,15.00
2022-11-20T13:12:18.010Z,14.17
2022-11-20T13:14:59.431Z,11.97
2022-11-20T13:17:43.362Z,11.77
2022-11-20T13:20:19.491Z,13.17
2022-11-20T13:22:50.425Z,15.83
2022-11-20T13:25:43.548Z,17.90
2022-11-20T13:28:10.398Z,14.20
2022-11-20T13:30:49.577Z,14.47
2022-11-20T13:33:45.918Z,15.87
2022-11-20T13:36:25.741Z,15.27
2022-11-20T13:38:54.669Z,15.67
2022-11-20T13:41:34.348Z,13.43
2022-11-20T13:44:13.929Z,16.40
2022-11-20T13:46:46.864Z,15.17
2022-11-20T13:49:44.795Z,12.57
2022-11-20T13:52:36.328Z,13.67
2022-11-20T13:55:36.047Z,13.13
2022-11-20T13:58:29.580Z,13.70
2022-11-20T14:01:07.911Z,12.77
2022-11-20T14:04:04.669Z,10.60
2022-11-20T14:06:32.690Z,12.63
2022-11-20T14:09:00.362Z,12.50
2022-11-20T14:11:29.897Z,12.90
2022-11-20T14:13:59.783Z,98.37
2022-11-20T14:16:28.813Z,12.17
2022-11-20T14:18:57.448Z,11.80
2022-11-20T14:21:31.197Z,11.57
2022-11-20T14:24:08.401Z,12.47
2022-11-20T14:26:36.243Z,12.83
2022-11-20T14:29:03.426Z,12.43
2022-11-20T14:31:30.708Z,10.87
2022-11-20T14:33:57.983Z,12.77
2022-11-20T14:36:26.332Z,12.30
2022-11-20T14:38:54.549Z,15.23
2022-11-20T14:41:24.384Z,12.77
2022-11-20T14:44:01.522Z,16.17
2022-11-20T14:46:29.327Z,15.20
2022-11-20T14:48:58.135Z,16.10
2022-11-20T14:51:42.702Z,12.00
2022-11-20T14:54:24.482Z,129.73
2022-11-20T14:57:03.504Z,15.13
2022-11-20T14:59:32.803Z,13.33
2022-11-20T15:02:06.304Z,11.53
2022-11-20T15:04:33.246Z,15.00
2022-11-20T15:07:01.032Z,13.83
2022-11-20T15:09:28.090Z,14.87
2022-11-20T15:12:05.682Z,13.23
2022-11-20T15:14:33.728Z,12.20
2022-11-20T15:17:00.796Z,15.50
2022-11-20T15:19:28.305Z,51.93
2022-11-20T15:21:55.165Z,44.17
2022-11-20T15:24:22.358Z,13.60
2022-11-20T15:26:49.701Z,14.90
2022-11-20T15:29:21.958Z,16.70
2022-11-20T15:31:48.842Z,17.60
2022-11-20T15:34:16.581Z,18.20
2022-11-20T15:36:44.577Z,13.07
2022-11-20T15:39:12.693Z,17.13
2022-11-20T15:41:40.256Z,17.67
2022-11-20T15:44:07.610Z,16.40
2022-11-20T15:46:39.555Z,16.00
2022-11-20T15:49:10.003Z,18.63
2022-11-20T15:51:39.306Z,16.60
2022-11-20T15:54:14.918Z,18.23
2022-11-20T15:56:41.840Z,19.97
2022-11-20T15:59:08.974Z,18.43
2022-11-20T16:01:36.378Z,16.97
2022-11-20T16:04:03.422Z,16.83
2022-11-20T16:06:30.310Z,116.57
2022-11-20T16:08:57.143Z,20.07
2022-11-20T16:11:23.948Z,18.20
2022-11-20T16:14:09.254Z,24.73
2022-11-20T16:16:38.753Z,19.17
2022-11-20T16:19:05.771Z,23.53
2022-11-20T16:21:32.729Z,27.83
2022-11-20T16:24:04.905Z,26.50
2022-11-20T16:26:31.779Z,27.83
2022-11-20T16:29:00.664Z,23.77
2022-11-20T16:31:27.681Z,26.37
2022-11-20T16:33:56.662Z,22.30
2022-11-20T16:36:25.466Z,19.33
2022-11-20T16:38:56.847Z,22.90
2022-11-20T16:41:26.674Z,23.23
2022-11-20T16:43:58.439Z,18.27
2022-11-20T16:46:27.528Z,25.00
2022-11-20T16:48:59.675Z,22.33
2022-11-20T16:51:28.296Z,23.07
2022-11-20T16:53:56.065Z,19.70
2022-11-20T16:56:27.277Z,22.20
2022-11-20T16:58:56.667Z,27.40
2022-11-20T17:01:25.929Z,22.90
2022-11-20T17:04:02.947Z,25.17
2022-11-20T17:06:35.180Z,31.00
2022-11-20T17:09:03.056Z,35.40
2022-11-20T17:11:30.421Z,29.17
2022-11-20T17:14:00.748Z,29.90
2022-11-20T17:16:27.912Z,35.53
2022-11-20T17:19:02.946Z,26.70
2022-11-20T17:21:30.946Z,26.53
2022-11-20T17:24:02.423Z,26.30
2022-11-20T17:26:29.505Z,24.73
2022-11-20T17:29:02.421Z,33.20
2022-11-20T17:31:30.279Z,30.43
2022-11-20T17:33:59.047Z,24.80
2022-11-20T17:36:26.667Z,25.83
2022-11-20T17:38:53.544Z,26.87
2022-11-20T17:41:22.784Z,26.10
2022-11-20T17:43:50.174Z,34.23
2022-11-20T17:46:18.298Z,29.03
2022-11-20T17:48:46.216Z,29.63
2022-11-20T17:51:15.577Z,25.00
2022-11-20T17:53:44.519Z,28.13
2022-11-20T17:56:30.149Z,25.63
2022-11-20T17:58:57.610Z,26.53
2022-11-20T18:01:25.068Z,23.13
2022-11-20T18:03:52.333Z,30.33
2022-11-20T18:06:22.331Z,34.50
2022-11-20T18:08:50.139Z,25.40
2022-11-20T18:11:19.764Z,24.37
2022-11-20T18:14:07.160Z,26.70
2022-11-20T18:16:38.618Z,29.30
2022-11-20T18:19:05.613Z,33.07
2022-11-20T18:21:32.852Z,25.80
2022-11-20T18:23:59.680Z,22.07
2022-11-20T18:26:27.195Z,24.20
2022-11-20T18:28:54.225Z,26.37
2022-11-20T18:31:21.417Z,21.13
2022-11-20T18:33:48.285Z,21.93
2022-11-20T18:36:18.657Z,22.63
2022-11-20T18:38:47.343Z,26.83
2022-11-20T18:41:38.149Z,24.10
2022-11-20T18:44:26.386Z,21.50
2022-11-20T18:46:53.241Z,17.67
2022-11-20T18:49:20.053Z,15.53
2022-11-20T18:51:46.910Z,16.87
2022-11-20T18:54:14.180Z,13.30
2022-11-20T18:56:41.069Z,12.70
2022-11-20T18:59:09.591Z,6.87
2022-11-20T19:01:37.519Z,6.03
2022-11-20T19:04:15.533Z,7.63
2022-11-20T19:06:44.316Z,4.77
2022-11-20T19:09:13.512Z,4.40
2022-11-20T19:11:40.807Z,9.77
2022-11-20T19:14:08.003Z,4.03
2022-11-20T19:16:35.552Z,4.27
2022-11-20T19:19:05.116Z,5.87
2022-11-20T19:21:32.505Z,4.00
2022-11-20T19:24:01.356Z,6.97
2022-11-20T19:26:28.346Z,4.50
2022-11-20T19:28:55.434Z,5.33
2022-11-20T19:31:26.455Z,4.67
2022-11-20T19:34:03.866Z,9.07
2022-11-20T19:36:39.080Z,7.10
2022-11-20T19:39:10.416Z,8.90
2022-11-20T19:41:38.935Z,5.20
2022-11-20T19:44:11.691Z,4.67
2022-11-20T19:46:39.831Z,4.70
2022-11-20T19:49:10.211Z,4.50
2022-11-20T19:51:38.809Z,4.27
2022-11-20T19:54:06.438Z,4.40
2022-11-20T19:56:34.314Z,5.10
2022-11-20T19:59:01.508Z,4.10
2022-11-20T20:01:30.372Z,6.80
2022-11-20T20:04:02.569Z,4.57
2022-11-20T20:06:30.054Z,3.40
2022-11-20T20:09:05.771Z,3.77
2022-11-20T20:11:34.267Z,5.10
2022-11-20T20:14:06.132Z,2.73
2022-11-20T20:16:34.368Z,4.87
2022-11-20T20:19:02.846Z,3.17
2022-11-20T20:21:31.145Z,2.53
2022-11-20T20:23:58.972Z,2.90
2022-11-20T20:26:28.085Z,3.27
2022-11-20T20:28:55.290Z,3.43
2022-11-20T20:31:25.269Z,4.43
2022-11-20T20:33:52.212Z,2.90
2022-11-20T20:36:20.839Z,3.17
2022-11-20T20:38:48.339Z,3.47
2022-11-20T20:41:18.554Z,3.63
2022-11-20T20:44:03.861Z,2.43
2022-11-20T20:46:30.936Z,3.80
2022-11-20T20:48:57.987Z,3.60
2022-11-20T20:51:25.116Z,3.10
2022-11-20T20:53:52.032Z,2.37
2022-11-20T20:56:19.278Z,2.70
2022-11-20T20:58:46.338Z,6.03
2022-11-20T21:01:15.765Z,2.10
2022-11-20T21:03:42.863Z,2.40
2022-11-20T21:06:11.153Z,2.30
2022-11-20T21:08:40.722Z,3.10
2022-11-20T21:11:17.023Z,2.67
2022-11-20T21:13:45.557Z,2.60
2022-11-20T21:16:14.539Z,2.27
2022-11-20T21:18:41.839Z,2.40
2022-11-20T21:21:31.202Z,3.17
2022-11-20T21:23:58.057Z,2.40
2022-11-20T21:26:24.937Z,2.70
2022-11-20T21:28:51.828Z,2.30
2022-11-20T21:31:24.888Z,3.17
2022-11-20T21:33:53.232Z,2.30
2022-11-20T21:36:22.841Z,2.00
2022-11-20T21:38:52.198Z,4.00
2022-11-20T21:41:19.226Z,2.07
2022-11-20T21:43:51.550Z,2.80
2022-11-20T21:46:26.353Z,2.03
2022-11-20T21:48:53.404Z,2.10
2022-11-20T21:51:22.409Z,2.30
2022-11-20T21:53:50.914Z,1.70
2022-11-20T21:56:20.691Z,1.83
2022-11-20T21:58:48.453Z,3.13
2022-11-20T22:01:26.939Z,2.70
2022-11-20T22:03:57.231Z,3.70
2022-11-20T22:06:26.224Z,2.40
2022-11-20T22:08:53.188Z,1.90
2022-11-20T22:11:21.635Z,2.30
2022-11-20T22:14:07.828Z,1.90
2022-11-20T22:16:35.824Z,2.10
2022-11-20T22:19:03.360Z,2.10
2022-11-20T22:21:31.339Z,2.50
2022-11-20T22:23:59.131Z,2.10
2022-11-20T22:26:28.749Z,2.20
2022-11-20T22:28:57.681Z,2.30
2022-11-20T22:31:27.519Z,1.90
2022-11-20T22:33:54.584Z,2.37
2022-11-20T22:36:29.343Z,2.30
2022-11-20T22:38:56.806Z,2.30
2022-11-20T22:41:28.605Z,2.80
2022-11-20T22:43:57.473Z,3.43
2022-11-20T22:46:26.404Z,2.10
2022-11-20T22:48:55.728Z,2.43
2022-11-20T22:51:25.316Z,2.47
2022-11-20T22:53:52.540Z,2.20
2022-11-20T22:56:19.859Z,2.30
2022-11-20T22:58:48.841Z,2.17
2022-11-20T23:01:29.852Z,3.10
2022-11-20T23:03:59.307Z,2.40
2022-11-20T23:06:26.435Z,2.03
2022-11-20T23:08:54.252Z,1.87
2022-11-20T23:11:26.611Z,2.33
2022-11-20T23:14:05.055Z,2.20
2022-11-20T23:16:33.433Z,4.77
2022-11-20T23:19:10.481Z,4.20
2022-11-20T23:21:39.206Z,4.97
2022-11-20T23:24:06.809Z,2.57
2022-11-20T23:26:36.075Z,2.17
2022-11-20T23:29:04.199Z,5.63
2022-11-20T23:31:33.111Z,2.30
2022-11-20T23:34:00.275Z,2.17
2022-11-20T23:36:27.513Z,2.80
2022-11-20T23:38:54.370Z,2.30
2022-11-20T23:41:21.223Z,2.13
2022-11-20T23:43:48.099Z,2.70
2022-11-20T23:46:16.772Z,2.50
2022-11-20T23:48:45.333Z,4.80
2022-11-20T23:51:13.042Z,3.47
2022-11-20T23:53:40.059Z,3.30
2022-11-20T23:56:07.105Z,2.57
2022-11-20T23:58:38.585Z,4.67
